createdAt,value
2018-07-07T00:00:08.032Z,22.04
2018-07-07T00:01:07.401Z,22.04
2018-07-07T00:02:07.318Z,22.04
2018-07-07T00:03:07.242Z,22.03
2018-07-07T00:04:07.159Z,22.04
2018-07-07T00:05:07.243Z,22.03
2018-07-07T00:06:07.439Z,22.04
2018-07-07T00:07:07.192Z,22.04
2018-07-07T00:08:07.016Z,22.04
2018-07-07T00:09:07.168Z,22.03
2018-07-07T00:10:07.305Z,22.04
2018-07-07T00:11:07.495Z,22.03
2018-07-07T00:12:07.344Z,22.03
2018-07-07T00:13:07.137Z,22.03
2018-07-07T00:14:07.075Z,22.03
2018-07-07T00:15:07.393Z,22.03
2018-07-07T00:16:07.245Z,22.03
2018-07-07T00:17:07.178Z,22.03
2018-07-07T00:18:07.274Z,22.02
2018-07-07T00:19:07.045Z,22.02
2018-07-07T00:20:07.261Z,22.03
2018-07-07T00:21:07.120Z,22.02
2018-07-07T00:22:07.274Z,22.02
2018-07-07T00:23:07.151Z,22.02
2018-07-07T00:24:07.085Z,22.02
2018-07-07T00:25:07.029Z,22.02
2018-07-07T00:26:07.308Z,22.02
2018-07-07T00:27:07.409Z,22.02
2018-07-07T00:28:07.089Z,22.02
2018-07-07T00:29:07.259Z,22.02
2018-07-07T00:30:07.236Z,22.02
2018-07-07T00:31:07.248Z,22.02
2018-07-07T00:32:07.128Z,22.02
2018-07-07T00:33:07.335Z,22.02
2018-07-07T00:34:07.036Z,22.01
2018-07-07T00:35:07.048Z,22.01
2018-07-07T00:36:07.202Z,22.01
2018-07-07T00:37:39.165Z,22.01
2018-07-07T00:38:07.174Z,22.01
2018-07-07T00:39:07.038Z,22.01
2018-07-07T00:40:07.072Z,22.01
2018-07-07T00:41:07.347Z,22.01
2018-07-07T00:42:07.299Z,22
2018-07-07T00:43:07.090Z,22
2018-07-07T00:44:06.925Z,22.01
2018-07-07T00:45:07.139Z,22
2018-07-07T00:46:07.134Z,22
2018-07-07T00:47:07.119Z,22
2018-07-07T00:48:07.364Z,22
2018-07-07T00:49:07.179Z,22.01
2018-07-07T00:50:07.493Z,22
2018-07-07T00:51:07.098Z,22
2018-07-07T00:52:07.279Z,22
2018-07-07T00:53:07.187Z,22
2018-07-07T00:54:07.277Z,22
2018-07-07T00:55:07.073Z,22
2018-07-07T00:56:07.000Z,22
2018-07-07T00:57:07.312Z,22
2018-07-07T00:58:07.234Z,22
2018-07-07T00:59:07.104Z,22
2018-07-07T01:00:07.104Z,22
2018-07-07T01:01:07.296Z,22
2018-07-07T01:02:07.296Z,22
2018-07-07T01:03:07.433Z,22
2018-07-07T01:04:17.291Z,22
2018-07-07T01:05:06.991Z,22
2018-07-07T01:06:07.281Z,22
2018-07-07T01:07:07.248Z,22
2018-07-07T01:08:07.061Z,22
2018-07-07T01:09:07.419Z,22
2018-07-07T01:10:07.047Z,22
2018-07-07T01:11:07.136Z,22
2018-07-07T01:12:07.375Z,22
2018-07-07T01:13:17.109Z,22
2018-07-07T01:14:07.359Z,21.99
2018-07-07T01:15:07.332Z,21.99
2018-07-07T01:16:07.633Z,21.99
2018-07-07T01:17:07.167Z,21.99
2018-07-07T01:18:07.114Z,21.99
2018-07-07T01:19:07.316Z,21.99
2018-07-07T01:20:07.330Z,21.99
2018-07-07T01:21:07.276Z,21.99
2018-07-07T01:22:07.040Z,21.99
2018-07-07T01:23:07.116Z,21.99
2018-07-07T01:24:07.393Z,21.98
2018-07-07T01:25:07.334Z,21.99
2018-07-07T01:26:07.124Z,21.99
2018-07-07T01:27:07.192Z,21.98
2018-07-07T01:28:07.030Z,21.99
2018-07-07T01:29:07.251Z,21.99
2018-07-07T01:30:07.266Z,21.99
2018-07-07T01:31:07.211Z,21.98
2018-07-07T01:32:07.260Z,21.99
2018-07-07T01:33:07.137Z,21.98
2018-07-07T01:34:07.320Z,21.98
2018-07-07T01:35:07.000Z,21.98
2018-07-07T01:36:07.247Z,21.98
2018-07-07T01:37:07.154Z,21.98
2018-07-07T01:38:07.154Z,21.98
2018-07-07T01:39:07.198Z,21.98
2018-07-07T01:40:07.029Z,21.98
2018-07-07T01:41:07.297Z,21.98
2018-07-07T01:42:07.102Z,21.98
2018-07-07T01:43:07.139Z,21.98
2018-07-07T01:44:07.064Z,21.97
2018-07-07T01:45:07.295Z,21.98
2018-07-07T01:46:07.138Z,21.98
2018-07-07T01:47:07.117Z,21.98
2018-07-07T01:48:07.123Z,21.97
2018-07-07T01:49:07.099Z,21.98
2018-07-07T01:50:07.100Z,21.97
2018-07-07T01:51:07.099Z,21.97
2018-07-07T01:52:07.073Z,21.97
2018-07-07T01:53:07.204Z,21.97
2018-07-07T01:54:07.049Z,21.97
2018-07-07T01:55:07.174Z,21.97
2018-07-07T01:56:06.998Z,21.97
2018-07-07T01:57:07.304Z,21.97
2018-07-07T01:58:06.999Z,21.97
2018-07-07T01:59:07.263Z,21.97
2018-07-07T02:00:07.127Z,21.97
2018-07-07T02:01:07.121Z,21.96
2018-07-07T02:02:07.133Z,21.97
2018-07-07T02:03:07.127Z,21.97
2018-07-07T02:04:07.203Z,21.96
2018-07-07T02:05:07.252Z,21.97
2018-07-07T02:06:07.311Z,21.96
2018-07-07T02:07:17.093Z,21.96
2018-07-07T02:08:07.154Z,21.96
2018-07-07T02:09:07.261Z,21.97
2018-07-07T02:10:07.073Z,21.96
2018-07-07T02:11:07.326Z,21.96
2018-07-07T02:12:07.217Z,21.96
2018-07-07T02:13:07.043Z,21.96
2018-07-07T02:14:07.216Z,21.96
2018-07-07T02:15:07.242Z,21.96
2018-07-07T02:16:07.060Z,21.96
2018-07-07T02:17:07.022Z,21.96
2018-07-07T02:18:07.220Z,21.96
2018-07-07T02:19:07.189Z,21.96
2018-07-07T02:20:07.157Z,21.95
2018-07-07T02:21:07.024Z,21.95
2018-07-07T02:22:07.250Z,21.95
2018-07-07T02:23:07.274Z,21.96
2018-07-07T02:24:07.185Z,21.96
2018-07-07T02:25:39.236Z,21.95
2018-07-07T02:26:07.199Z,21.95
2018-07-07T02:27:07.154Z,21.95
2018-07-07T02:28:07.464Z,21.95
2018-07-07T02:29:07.239Z,21.95
2018-07-07T02:30:07.233Z,21.95
2018-07-07T02:31:07.049Z,21.95
2018-07-07T02:32:07.064Z,21.95
2018-07-07T02:33:07.249Z,21.95
2018-07-07T02:34:07.097Z,21.95
2018-07-07T02:35:07.243Z,21.95
2018-07-07T02:36:07.266Z,21.95
2018-07-07T02:37:07.325Z,21.95
2018-07-07T02:38:07.046Z,21.95
2018-07-07T02:39:07.023Z,21.95
2018-07-07T02:40:07.144Z,21.95
2018-07-07T02:41:07.059Z,21.95
2018-07-07T02:42:07.070Z,21.95
2018-07-07T02:43:07.111Z,21.95
2018-07-07T02:44:07.055Z,21.95
2018-07-07T02:45:07.198Z,21.95
2018-07-07T02:46:07.313Z,21.95
2018-07-07T02:47:07.187Z,21.95
2018-07-07T02:48:07.313Z,21.95
2018-07-07T02:49:07.048Z,21.95
2018-07-07T02:50:07.127Z,21.95
2018-07-07T02:51:07.185Z,21.95
2018-07-07T02:52:07.203Z,21.95
2018-07-07T02:53:07.063Z,21.95
2018-07-07T02:54:07.217Z,21.95
2018-07-07T02:55:07.214Z,21.95
2018-07-07T02:56:07.171Z,21.95
2018-07-07T02:57:07.065Z,21.95
2018-07-07T02:58:07.063Z,21.94
2018-07-07T02:59:07.042Z,21.95
2018-07-07T03:00:07.085Z,21.95
2018-07-07T03:01:07.019Z,21.94
2018-07-07T03:02:07.160Z,21.95
2018-07-07T03:03:07.441Z,21.95
2018-07-07T03:04:07.116Z,21.95
2018-07-07T03:05:07.228Z,21.94
2018-07-07T03:06:07.258Z,21.94
2018-07-07T03:07:07.295Z,21.94
2018-07-07T03:08:07.194Z,21.94
2018-07-07T03:09:07.083Z,21.94
2018-07-07T03:10:07.143Z,21.94
2018-07-07T03:11:07.204Z,21.94
2018-07-07T03:12:07.185Z,21.94
2018-07-07T03:13:07.102Z,21.94
2018-07-07T03:14:07.065Z,21.94
2018-07-07T03:15:07.450Z,21.94
2018-07-07T03:16:07.121Z,21.94
2018-07-07T03:17:07.149Z,21.94
2018-07-07T03:18:07.226Z,21.93
2018-07-07T03:19:07.337Z,21.94
2018-07-07T03:20:07.211Z,21.94
2018-07-07T03:21:07.288Z,21.94
2018-07-07T03:22:07.222Z,21.93
2018-07-07T03:23:07.103Z,21.93
2018-07-07T03:24:07.228Z,21.93
2018-07-07T03:25:06.983Z,21.93
2018-07-07T03:26:07.004Z,21.94
2018-07-07T03:27:06.998Z,21.94
2018-07-07T03:28:07.171Z,21.93
2018-07-07T03:29:07.207Z,21.93
2018-07-07T03:30:07.287Z,21.93
2018-07-07T03:31:07.270Z,21.93
2018-07-07T03:32:07.198Z,21.93
2018-07-07T03:33:07.277Z,21.93
2018-07-07T03:34:07.194Z,21.93
2018-07-07T03:35:07.083Z,21.93
2018-07-07T03:36:07.093Z,21.93
2018-07-07T03:37:07.069Z,21.93
2018-07-07T03:38:07.097Z,21.93
2018-07-07T03:39:07.214Z,21.93
2018-07-07T03:40:07.189Z,21.93
2018-07-07T03:41:07.036Z,21.93
2018-07-07T03:42:07.335Z,21.93
2018-07-07T03:43:07.216Z,21.93
2018-07-07T03:44:07.030Z,21.92
2018-07-07T03:45:07.241Z,21.92
2018-07-07T03:46:07.223Z,21.93
2018-07-07T03:47:07.140Z,21.92
2018-07-07T03:48:07.332Z,21.92
2018-07-07T03:49:07.238Z,21.93
2018-07-07T03:50:07.026Z,21.92
2018-07-07T03:51:07.262Z,21.92
2018-07-07T03:52:07.235Z,21.93
2018-07-07T03:53:07.114Z,21.92
2018-07-07T03:54:07.181Z,21.92
2018-07-07T03:55:07.022Z,21.92
2018-07-07T03:56:07.120Z,21.92
2018-07-07T03:57:07.013Z,21.92
2018-07-07T03:58:07.130Z,21.92
2018-07-07T03:59:07.060Z,21.92
2018-07-07T04:00:07.180Z,21.92
2018-07-07T04:01:07.207Z,21.92
2018-07-07T04:02:07.132Z,21.92
2018-07-07T04:03:06.964Z,21.92
2018-07-07T04:04:07.014Z,21.92
2018-07-07T04:05:07.169Z,21.92
2018-07-07T04:06:07.221Z,21.92
2018-07-07T04:07:07.278Z,21.92
2018-07-07T04:08:07.188Z,21.92
2018-07-07T04:09:07.044Z,21.91
2018-07-07T04:10:07.219Z,21.92
2018-07-07T04:11:07.073Z,21.91
2018-07-07T04:12:07.187Z,21.91
2018-07-07T04:13:07.001Z,21.91
2018-07-07T04:14:07.173Z,21.91
2018-07-07T04:15:07.013Z,21.91
2018-07-07T04:16:06.960Z,21.91
2018-07-07T04:17:07.217Z,21.91
2018-07-07T04:18:07.140Z,21.91
2018-07-07T04:19:07.199Z,21.91
2018-07-07T04:20:07.403Z,21.91
2018-07-07T04:21:07.265Z,21.91
2018-07-07T04:22:07.099Z,21.91
2018-07-07T04:23:07.039Z,21.91
2018-07-07T04:24:07.060Z,21.91
2018-07-07T04:25:07.202Z,21.91
2018-07-07T04:26:07.117Z,21.91
2018-07-07T04:27:07.048Z,21.9
2018-07-07T04:28:07.069Z,21.91
2018-07-07T04:29:07.096Z,21.9
2018-07-07T04:30:07.275Z,21.91
2018-07-07T04:31:07.097Z,21.91
2018-07-07T04:32:07.172Z,21.91
2018-07-07T04:33:07.221Z,21.91
2018-07-07T04:34:07.284Z,21.9
2018-07-07T04:35:07.111Z,21.9
2018-07-07T04:36:06.976Z,21.9
2018-07-07T04:37:07.271Z,21.91
2018-07-07T04:38:07.172Z,21.9
2018-07-07T04:39:07.170Z,21.9
2018-07-07T04:40:07.185Z,21.9
2018-07-07T04:41:07.121Z,21.9
2018-07-07T04:42:07.194Z,21.9
2018-07-07T04:43:07.172Z,21.9
2018-07-07T04:44:07.496Z,21.9
2018-07-07T04:45:07.003Z,21.9
2018-07-07T04:46:07.239Z,21.9
2018-07-07T04:47:06.973Z,21.9
2018-07-07T04:48:07.223Z,21.9
2018-07-07T04:49:07.158Z,21.9
2018-07-07T04:50:07.117Z,21.9
2018-07-07T04:51:07.233Z,21.9
2018-07-07T04:52:06.973Z,21.9
2018-07-07T04:53:07.198Z,21.9
2018-07-07T04:54:07.112Z,21.9
2018-07-07T04:55:07.029Z,21.9
2018-07-07T04:56:07.217Z,21.89
2018-07-07T04:57:07.098Z,21.89
2018-07-07T04:58:07.198Z,21.89
2018-07-07T04:59:07.169Z,21.89
2018-07-07T05:00:07.187Z,21.89
2018-07-07T05:01:07.037Z,21.89
2018-07-07T05:02:07.338Z,21.9
2018-07-07T05:03:07.154Z,21.89
2018-07-07T05:04:07.233Z,21.89
2018-07-07T05:05:07.373Z,21.89
2018-07-07T05:06:07.058Z,21.89
2018-07-07T05:07:07.196Z,21.89
2018-07-07T05:08:07.239Z,21.89
2018-07-07T05:09:06.914Z,21.89
2018-07-07T05:10:07.000Z,21.89
2018-07-07T05:11:07.093Z,21.9
2018-07-07T05:12:07.242Z,21.89
2018-07-07T05:13:07.150Z,21.89
2018-07-07T05:14:07.135Z,21.89
2018-07-07T05:15:07.082Z,21.89
2018-07-07T05:16:07.221Z,21.89
2018-07-07T05:17:07.159Z,21.89
2018-07-07T05:18:07.086Z,21.89
2018-07-07T05:19:06.968Z,21.89
2018-07-07T05:20:07.115Z,21.89
2018-07-07T05:21:07.249Z,21.89
2018-07-07T05:22:07.067Z,21.9
2018-07-07T05:23:07.059Z,21.89
2018-07-07T05:24:07.086Z,21.89
2018-07-07T05:25:07.273Z,21.9
2018-07-07T05:26:06.990Z,21.89
2018-07-07T05:27:07.240Z,21.89
2018-07-07T05:28:07.073Z,21.89
2018-07-07T05:29:07.135Z,21.89
2018-07-07T05:30:07.046Z,21.89
2018-07-07T05:31:07.036Z,21.89
2018-07-07T05:32:07.880Z,21.89
2018-07-07T05:33:07.201Z,21.89
2018-07-07T05:34:07.100Z,21.89
2018-07-07T05:35:07.138Z,21.89
2018-07-07T05:36:07.184Z,21.89
2018-07-07T05:37:07.522Z,21.89
2018-07-07T05:38:06.987Z,21.89
2018-07-07T05:39:07.168Z,21.89
2018-07-07T05:40:07.112Z,21.89
2018-07-07T05:41:06.994Z,21.89
2018-07-07T05:42:06.978Z,21.89
2018-07-07T05:43:07.349Z,21.89
2018-07-07T05:44:06.928Z,21.89
2018-07-07T05:45:07.199Z,21.89
2018-07-07T05:46:07.292Z,21.89
2018-07-07T05:47:07.059Z,21.89
2018-07-07T05:48:07.316Z,21.89
2018-07-07T05:49:06.982Z,21.89
2018-07-07T05:50:07.922Z,21.89
2018-07-07T05:51:07.067Z,21.89
2018-07-07T05:52:07.183Z,21.89
2018-07-07T05:53:07.060Z,21.89
2018-07-07T05:54:07.328Z,21.89
2018-07-07T05:55:07.115Z,21.89
2018-07-07T05:56:07.093Z,21.89
2018-07-07T05:57:07.209Z,21.89
2018-07-07T05:58:07.091Z,21.89
2018-07-07T05:59:07.102Z,21.89
2018-07-07T06:00:07.127Z,21.89
2018-07-07T06:01:07.088Z,21.89
2018-07-07T06:02:07.170Z,21.89
2018-07-07T06:03:07.244Z,21.89
2018-07-07T06:04:07.193Z,21.89
2018-07-07T06:05:07.068Z,21.89
2018-07-07T06:06:07.059Z,21.89
2018-07-07T06:07:07.249Z,21.89
2018-07-07T06:08:07.139Z,21.89
2018-07-07T06:09:07.163Z,21.89
2018-07-07T06:10:07.112Z,21.89
2018-07-07T06:11:07.010Z,21.89
2018-07-07T06:12:07.078Z,21.89
2018-07-07T06:13:07.227Z,21.89
2018-07-07T06:14:07.226Z,21.89
2018-07-07T06:15:07.140Z,21.89
2018-07-07T06:16:06.946Z,21.89
2018-07-07T06:17:07.184Z,21.89
2018-07-07T06:18:07.350Z,21.89
2018-07-07T06:19:07.137Z,21.89
2018-07-07T06:20:07.244Z,21.89
2018-07-07T06:21:07.158Z,21.89
2018-07-07T06:22:07.160Z,21.89
2018-07-07T06:23:06.956Z,21.89
2018-07-07T06:24:07.062Z,21.89
2018-07-07T06:25:07.086Z,21.89
2018-07-07T06:26:07.243Z,21.89
2018-07-07T06:27:07.071Z,21.89
2018-07-07T06:28:07.117Z,21.89
2018-07-07T06:29:07.006Z,21.89
2018-07-07T06:30:07.130Z,21.89
2018-07-07T06:31:07.048Z,21.89
2018-07-07T06:32:17.060Z,21.89
2018-07-07T06:33:07.158Z,21.88
2018-07-07T06:34:07.025Z,21.89
2018-07-07T06:35:07.150Z,21.88
2018-07-07T06:36:07.105Z,21.88
2018-07-07T06:37:06.950Z,21.89
2018-07-07T06:38:07.121Z,21.89
2018-07-07T06:39:07.103Z,21.89
2018-07-07T06:40:07.117Z,21.89
2018-07-07T06:41:07.082Z,21.89
2018-07-07T06:42:07.062Z,21.89
2018-07-07T06:43:07.206Z,21.89
2018-07-07T06:44:07.043Z,21.89
2018-07-07T06:45:07.133Z,21.89
2018-07-07T06:46:07.006Z,21.89
2018-07-07T06:47:07.067Z,21.89
2018-07-07T06:48:06.962Z,21.89
2018-07-07T06:49:06.974Z,21.89
2018-07-07T06:50:07.039Z,21.89
2018-07-07T06:51:07.083Z,21.89
2018-07-07T06:52:07.047Z,21.89
2018-07-07T06:53:07.166Z,21.89
2018-07-07T06:54:07.368Z,21.89
2018-07-07T06:55:07.230Z,21.89
2018-07-07T06:56:07.022Z,21.89
2018-07-07T06:57:07.009Z,21.89
2018-07-07T06:58:07.186Z,21.89
2018-07-07T06:59:06.963Z,21.88
2018-07-07T07:00:07.120Z,21.89
2018-07-07T07:01:07.128Z,21.89
2018-07-07T07:02:07.080Z,21.89
2018-07-07T07:03:07.148Z,21.89
2018-07-07T07:04:07.030Z,21.89
2018-07-07T07:05:07.196Z,21.89
2018-07-07T07:06:07.187Z,21.89
2018-07-07T07:07:07.231Z,21.89
2018-07-07T07:08:07.113Z,21.89
2018-07-07T07:09:07.276Z,21.89
2018-07-07T07:10:07.163Z,21.89
2018-07-07T07:11:07.267Z,21.89
2018-07-07T07:12:07.038Z,21.89
2018-07-07T07:13:06.966Z,21.89
2018-07-07T07:14:07.138Z,21.89
2018-07-07T07:15:07.126Z,21.89
2018-07-07T07:16:07.216Z,21.89
2018-07-07T07:17:07.003Z,21.89
2018-07-07T07:18:07.135Z,21.89
2018-07-07T07:19:07.126Z,21.89
2018-07-07T07:20:07.177Z,21.89
2018-07-07T07:21:07.092Z,21.88
2018-07-07T07:22:06.968Z,21.89
2018-07-07T07:23:07.136Z,21.9
2018-07-07T07:24:07.005Z,21.9
2018-07-07T07:25:07.002Z,21.91
2018-07-07T07:26:08.324Z,21.93
2018-07-07T07:27:07.057Z,21.94
2018-07-07T07:28:06.995Z,21.95
2018-07-07T07:29:06.939Z,21.95
2018-07-07T07:30:07.078Z,21.96
2018-07-07T07:31:07.127Z,21.97
2018-07-07T07:32:07.269Z,21.98
2018-07-07T07:33:07.600Z,21.99
2018-07-07T07:34:07.112Z,22
2018-07-07T07:35:07.091Z,22
2018-07-07T07:36:07.024Z,22.01
2018-07-07T07:37:06.996Z,22.02
2018-07-07T07:38:06.971Z,22.03
2018-07-07T07:39:07.115Z,22.04
2018-07-07T07:40:07.155Z,22.05
2018-07-07T07:41:07.006Z,22.06
2018-07-07T07:42:07.190Z,22.06
2018-07-07T07:43:07.223Z,22.06
2018-07-07T07:44:07.220Z,22.08
2018-07-07T07:45:06.943Z,22.07
2018-07-07T07:46:07.080Z,22.08
2018-07-07T07:47:52.097Z,22.1
2018-07-07T07:48:52.240Z,22.1
2018-07-07T07:49:52.259Z,22.11
2018-07-07T07:50:52.125Z,22.12
2018-07-07T07:51:52.241Z,22.12
2018-07-07T07:52:52.680Z,22.13
2018-07-07T07:54:02.224Z,22.11
2018-07-07T07:54:52.275Z,22.11
2018-07-07T07:55:52.394Z,22.1
2018-07-07T07:56:52.386Z,22.1
2018-07-07T07:57:52.475Z,22.09
2018-07-07T07:58:52.768Z,22.09
2018-07-07T07:59:52.125Z,22.1
2018-07-07T08:00:52.300Z,22.09
2018-07-07T08:01:52.490Z,22.08
2018-07-07T08:02:52.116Z,22.08
2018-07-07T08:03:52.318Z,22.08
2018-07-07T08:04:52.528Z,22.07
2018-07-07T08:05:52.555Z,22.07
2018-07-07T08:06:52.445Z,22.06
2018-07-07T08:07:52.307Z,22.06
2018-07-07T08:08:52.450Z,22.06
2018-07-07T08:09:52.179Z,22.06
2018-07-07T08:10:52.338Z,22.06
2018-07-07T08:11:52.283Z,22.06
2018-07-07T08:12:52.506Z,22.06
2018-07-07T08:13:52.138Z,22.06
2018-07-07T08:14:52.303Z,22.05
2018-07-07T08:15:52.307Z,22.05
2018-07-07T08:17:23.946Z,22.04
2018-07-07T08:17:52.207Z,22.05
2018-07-07T08:18:52.240Z,22.04
2018-07-07T08:19:52.408Z,22.04
2018-07-07T08:20:52.217Z,22.04
2018-07-07T08:21:52.179Z,22.03
2018-07-07T08:22:52.599Z,22.04
2018-07-07T08:23:52.192Z,22.04
2018-07-07T08:24:52.240Z,22.03
2018-07-07T08:25:52.128Z,22.03
2018-07-07T08:26:52.274Z,22.03
2018-07-07T08:27:52.341Z,22.03
2018-07-07T08:28:52.189Z,22.02
2018-07-07T08:29:52.257Z,22.02
2018-07-07T08:30:52.307Z,22.02
2018-07-07T08:31:52.316Z,22.02
2018-07-07T08:32:52.024Z,22.01
2018-07-07T08:33:52.294Z,22.01
2018-07-07T08:34:52.311Z,22.01
2018-07-07T08:35:52.266Z,22.01
2018-07-07T08:36:52.489Z,22.01
2018-07-07T08:37:52.099Z,22.01
2018-07-07T08:38:52.280Z,22
2018-07-07T08:39:52.314Z,22.01
2018-07-07T08:40:52.356Z,22
2018-07-07T08:41:52.583Z,22
2018-07-07T08:42:52.191Z,22
2018-07-07T08:43:52.152Z,22
2018-07-07T08:44:52.175Z,22
2018-07-07T08:45:52.508Z,22
2018-07-07T08:46:52.156Z,22
2018-07-07T08:47:52.271Z,22
2018-07-07T08:48:52.138Z,22
2018-07-07T08:49:52.324Z,22
2018-07-07T08:50:52.125Z,22
2018-07-07T08:51:52.238Z,22
2018-07-07T08:52:52.219Z,22
2018-07-07T08:53:52.872Z,22
2018-07-07T08:54:52.977Z,22
2018-07-07T08:55:53.705Z,22
2018-07-07T08:56:52.788Z,22
2018-07-07T08:57:52.894Z,22
2018-07-07T08:58:52.938Z,22
2018-07-07T08:59:52.751Z,22
2018-07-07T09:00:54.015Z,22
2018-07-07T09:01:53.201Z,22
2018-07-07T09:02:52.881Z,21.99
2018-07-07T09:03:52.911Z,22
2018-07-07T09:04:53.779Z,21.99
2018-07-07T09:05:52.931Z,21.99
2018-07-07T09:06:52.814Z,21.99
2018-07-07T09:07:52.909Z,21.99
2018-07-07T09:08:52.668Z,21.99
2018-07-07T09:09:52.829Z,21.99
2018-07-07T09:10:52.634Z,21.99
2018-07-07T09:11:53.832Z,21.99
2018-07-07T09:12:52.875Z,21.98
2018-07-07T09:13:53.099Z,21.98
2018-07-07T09:14:52.898Z,21.99
2018-07-07T09:15:53.078Z,21.98
2018-07-07T09:16:53.103Z,21.98
2018-07-07T09:17:52.762Z,21.98
2018-07-07T09:18:54.746Z,21.98
2018-07-07T09:19:52.903Z,21.98
2018-07-07T09:20:53.010Z,21.98
2018-07-07T09:21:52.882Z,21.97
2018-07-07T09:22:53.033Z,21.97
2018-07-07T09:23:53.047Z,21.99
2018-07-07T09:24:52.912Z,22
2018-07-07T09:25:52.920Z,22.01
2018-07-07T09:26:52.741Z,22.01
2018-07-07T09:27:52.788Z,22.01
2018-07-07T09:28:53.007Z,22.01
2018-07-07T09:29:52.907Z,22.01
2018-07-07T09:30:53.294Z,22.02
2018-07-07T09:31:52.874Z,22.01
2018-07-07T09:32:53.130Z,22.02
2018-07-07T09:33:53.692Z,22.02
2018-07-07T09:34:53.760Z,22.04
2018-07-07T09:35:52.680Z,22.04
2018-07-07T09:36:52.828Z,22.03
2018-07-07T09:37:52.859Z,22.04
2018-07-07T09:38:53.634Z,22.05
2018-07-07T09:39:52.784Z,22.05
2018-07-07T09:40:52.825Z,22.07
2018-07-07T09:41:52.830Z,22.08
2018-07-07T09:42:52.987Z,22.08
2018-07-07T09:43:52.824Z,22.09
2018-07-07T09:44:52.765Z,22.1
2018-07-07T09:45:53.101Z,22.12
2018-07-07T09:46:52.830Z,22.12
2018-07-07T09:47:52.871Z,22.13
2018-07-07T09:48:53.067Z,22.15
2018-07-07T09:49:53.038Z,22.14
2018-07-07T09:50:53.151Z,22.15
2018-07-07T09:51:52.839Z,22.15
2018-07-07T09:52:52.464Z,22.18
2018-07-07T09:53:52.147Z,22.18
2018-07-07T09:54:52.240Z,22.18
2018-07-07T09:55:52.139Z,22.18
2018-07-07T09:56:52.207Z,22.18
2018-07-07T09:57:53.262Z,22.18
2018-07-07T09:58:52.197Z,22.18
2018-07-07T09:59:52.830Z,22.2
2018-07-07T10:00:52.093Z,22.21
2018-07-07T10:01:52.565Z,22.21
2018-07-07T10:02:52.222Z,22.21
2018-07-07T10:03:52.151Z,22.23
2018-07-07T10:04:52.155Z,22.22
2018-07-07T10:05:52.161Z,22.23
2018-07-07T10:06:52.125Z,22.24
2018-07-07T10:07:52.656Z,22.23
2018-07-07T10:08:52.883Z,22.24
2018-07-07T10:09:53.080Z,22.24
2018-07-07T10:10:52.105Z,22.24
2018-07-07T10:11:52.227Z,22.25
2018-07-07T10:12:52.194Z,22.26
2018-07-07T10:13:53.134Z,22.27
2018-07-07T10:14:52.918Z,22.27
2018-07-07T10:15:53.155Z,22.28
2018-07-07T10:16:52.068Z,22.29
2018-07-07T10:17:52.165Z,22.29
2018-07-07T10:18:52.174Z,22.29
2018-07-07T10:19:53.176Z,22.29
2018-07-07T10:20:52.138Z,22.29
2018-07-07T10:21:53.235Z,22.29
2018-07-07T10:22:52.134Z,22.29
2018-07-07T10:23:52.858Z,22.29
2018-07-07T10:24:52.750Z,22.29
2018-07-07T10:25:52.074Z,22.29
2018-07-07T10:26:53.329Z,22.3
2018-07-07T10:27:52.216Z,22.3
2018-07-07T10:28:52.247Z,22.29
2018-07-07T10:29:52.264Z,22.29
2018-07-07T10:30:52.612Z,22.29
2018-07-07T10:31:52.782Z,22.29
2018-07-07T10:32:53.144Z,22.29
2018-07-07T10:33:53.155Z,22.29
2018-07-07T10:34:51.990Z,22.29
2018-07-07T10:35:52.583Z,22.31
2018-07-07T10:36:52.091Z,22.31
2018-07-07T10:37:52.235Z,22.32
2018-07-07T10:38:52.239Z,22.32
2018-07-07T10:39:53.198Z,22.33
2018-07-07T10:40:53.218Z,22.32
2018-07-07T10:41:52.223Z,22.33
2018-07-07T10:42:53.200Z,22.34
2018-07-07T10:43:52.069Z,22.35
2018-07-07T10:44:53.246Z,22.36
2018-07-07T10:45:54.607Z,22.36
2018-07-07T10:46:52.840Z,22.36
2018-07-07T10:47:52.506Z,22.36
2018-07-07T10:48:52.436Z,22.36
2018-07-07T10:49:52.182Z,22.37
2018-07-07T10:50:53.295Z,22.38
2018-07-07T10:51:52.929Z,22.39
2018-07-07T10:52:52.104Z,22.39
2018-07-07T10:53:52.781Z,22.39
2018-07-07T10:54:52.235Z,22.39
2018-07-07T10:55:52.176Z,22.39
2018-07-07T10:56:52.229Z,22.39
2018-07-07T10:57:52.227Z,22.4
2018-07-07T10:58:52.569Z,22.39
2018-07-07T10:59:52.203Z,22.39
2018-07-07T11:00:52.192Z,22.41
2018-07-07T11:01:52.382Z,22.38
2018-07-07T11:02:52.102Z,22.37
2018-07-07T11:03:52.177Z,22.36
2018-07-07T11:04:51.994Z,22.36
2018-07-07T11:05:52.162Z,22.35
2018-07-07T11:06:52.271Z,22.35
2018-07-07T11:07:52.195Z,22.34
2018-07-07T11:08:52.087Z,22.33
2018-07-07T11:09:52.252Z,22.33
2018-07-07T11:10:52.267Z,22.32
2018-07-07T11:11:53.069Z,22.32
2018-07-07T11:12:52.247Z,22.31
2018-07-07T11:13:52.149Z,22.3
2018-07-07T11:14:52.238Z,22.3
2018-07-07T11:15:52.093Z,22.29
2018-07-07T11:16:52.167Z,22.29
2018-07-07T11:17:52.134Z,22.29
2018-07-07T11:18:52.304Z,22.28
2018-07-07T11:19:52.348Z,22.27
2018-07-07T11:20:52.404Z,22.27
2018-07-07T11:21:52.272Z,22.27
2018-07-07T11:22:52.146Z,22.27
2018-07-07T11:23:52.211Z,22.26
2018-07-07T11:24:52.105Z,22.26
2018-07-07T11:25:52.347Z,22.25
2018-07-07T11:26:52.356Z,22.25
2018-07-07T11:27:52.052Z,22.25
2018-07-07T11:28:52.171Z,22.24
2018-07-07T11:29:52.986Z,22.24
2018-07-07T11:30:52.275Z,22.24
2018-07-07T11:31:52.254Z,22.24
2018-07-07T11:32:52.197Z,22.24
2018-07-07T11:33:52.272Z,22.24
2018-07-07T11:34:52.210Z,22.24
2018-07-07T11:35:52.135Z,22.23
2018-07-07T11:36:52.649Z,22.23
2018-07-07T11:37:52.249Z,22.23
2018-07-07T11:38:52.228Z,22.23
2018-07-07T11:39:52.194Z,22.22
2018-07-07T11:40:52.281Z,22.22
2018-07-07T11:41:52.177Z,22.22
2018-07-07T11:42:51.959Z,22.21
2018-07-07T11:43:52.028Z,22.21
2018-07-07T11:44:52.275Z,22.21
2018-07-07T11:45:52.186Z,22.21
2018-07-07T11:46:52.204Z,22.21
2018-07-07T11:47:52.292Z,22.2
2018-07-07T11:48:52.135Z,22.2
2018-07-07T11:49:52.324Z,22.2
2018-07-07T11:50:52.091Z,22.19
2018-07-07T11:51:52.216Z,22.19
2018-07-07T11:52:52.467Z,22.19
2018-07-07T11:53:52.562Z,22.19
2018-07-07T11:54:52.486Z,22.18
2018-07-07T11:55:52.502Z,22.18
2018-07-07T11:56:52.337Z,22.19
2018-07-07T11:57:52.743Z,22.18
2018-07-07T11:58:52.601Z,22.18
2018-07-07T11:59:52.596Z,22.18
2018-07-07T12:00:52.767Z,22.18
2018-07-07T12:01:52.718Z,22.18
2018-07-07T12:02:52.523Z,22.18
2018-07-07T12:03:52.793Z,22.18
2018-07-07T12:04:53.040Z,22.18
2018-07-07T12:05:54.999Z,22.17
2018-07-07T12:06:52.391Z,22.18
2018-07-07T12:08:14.610Z,22.17
2018-07-07T12:08:55.097Z,22.17
2018-07-07T12:09:52.751Z,22.17
2018-07-07T12:10:52.809Z,22.17
2018-07-07T12:11:52.734Z,22.16
2018-07-07T12:12:52.436Z,22.16
2018-07-07T12:13:52.453Z,22.17
2018-07-07T12:14:52.590Z,22.16
2018-07-07T12:15:52.478Z,22.16
2018-07-07T12:16:52.557Z,22.17
2018-07-07T12:17:52.739Z,22.16
2018-07-07T12:18:52.301Z,22.16
2018-07-07T12:19:52.797Z,22.15
2018-07-07T12:20:52.755Z,22.16
2018-07-07T12:21:52.412Z,22.15
2018-07-07T12:22:52.401Z,22.15
2018-07-07T12:23:52.595Z,22.15
2018-07-07T12:24:55.099Z,22.15
2018-07-07T12:25:52.518Z,22.15
2018-07-07T12:26:52.795Z,22.16
2018-07-07T12:27:52.558Z,22.17
2018-07-07T12:28:52.769Z,22.18
2018-07-07T12:29:52.458Z,22.19
2018-07-07T12:30:52.526Z,22.18
2018-07-07T12:31:52.815Z,22.21
2018-07-07T12:32:52.543Z,22.21
2018-07-07T12:33:52.641Z,22.21
2018-07-07T12:34:52.408Z,22.22
2018-07-07T12:35:52.794Z,22.23
2018-07-07T12:36:52.031Z,22.23
2018-07-07T12:37:52.510Z,22.23
2018-07-07T12:38:52.036Z,22.24
2018-07-07T12:39:52.558Z,22.25
2018-07-07T12:40:53.253Z,22.26
2018-07-07T12:41:52.346Z,22.26
2018-07-07T12:42:52.525Z,22.27
2018-07-07T12:43:52.636Z,22.27
2018-07-07T12:44:53.002Z,22.28
2018-07-07T12:46:33.751Z,22.29
2018-07-07T12:46:52.563Z,22.29
2018-07-07T12:47:52.472Z,22.3
2018-07-07T12:48:52.848Z,22.3
2018-07-07T12:49:52.833Z,22.3
2018-07-07T12:50:52.844Z,22.31
2018-07-07T12:51:52.837Z,22.32
2018-07-07T12:52:52.137Z,22.33
2018-07-07T12:53:52.296Z,22.34
2018-07-07T12:54:53.068Z,22.35
2018-07-07T12:55:52.189Z,22.35
2018-07-07T12:56:52.161Z,22.35
2018-07-07T12:57:52.251Z,22.35
2018-07-07T12:58:52.238Z,22.36
2018-07-07T12:59:52.079Z,22.36